sensor_id;sensor_type;location;lat;lon;timestamp;pressure;altitude;pressure_sealevel;temperature;humidity
61018;BME280;48171;51.550;5.434;2023-01-26T00:01:48;102571.38;;;-1.11;100.00
61018;BME280;48171;51.550;5.434;2023-01-26T00:04:14;102575.19;;;-1.06;100.00
61018;BME280;48171;51.550;5.434;2023-01-26T00:06:39;102575.31;;;-1.05;100.00
61018;BME280;48171;51.550;5.434;2023-01-26T00:09:04;102572.47;;;-1.08;100.00
61018;BME280;48171;51.550;5.434;2023-01-26T00:11:29;102567.19;;;-1.09;100.00
61018;BME280;48171;51.550;5.434;2023-01-26T00:13:56;102561.22;;;-1.08;100.00
61018;BME280;48171;51.550;5.434;2023-01-26T00:16:23;102547.94;;;-1.13;100.00
61018;BME280;48171;51.550;5.434;2023-01-26T00:18:48;102558.63;;;-1.08;100.00
61018;BME280;48171;51.550;5.434;2023-01-26T00:21:16;102554.91;;;-1.12;100.00
61018;BME280;48171;51.550;5.434;2023-01-26T00:23:41;102563.09;;;-1.06;100.00
61018;BME280;48171;51.550;5.434;2023-01-26T00:26:09;102549.72;;;-1.12;100.00
61018;BME280;48171;51.550;5.434;2023-01-26T00:28:34;102561.09;;;-1.10;100.00
61018;BME280;48171;51.550;5.434;2023-01-26T00:31:04;102535.56;;;-1.17;100.00
61018;BME280;48171;51.550;5.434;2023-01-26T00:33:30;102546.53;;;-1.08;100.00
61018;BME280;48171;51.550;5.434;2023-01-26T00:35:55;102541.84;;;-1.13;100.00
61018;BME280;48171;51.550;5.434;2023-01-26T00:38:21;102550.03;;;-1.07;100.00
61018;BME280;48171;51.550;5.434;2023-01-26T00:40:46;102536.06;;;-1.09;100.00
61018;BME280;48171;51.550;5.434;2023-01-26T00:43:11;102530.09;;;-1.08;100.00
61018;BME280;48171;51.550;5.434;2023-01-26T00:45:36;102537.16;;;-1.06;100.00
61018;BME280;48171;51.550;5.434;2023-01-26T00:48:02;102534.56;;;-1.06;100.00
61018;BME280;48171;51.550;5.434;2023-01-26T00:50:27;102524.78;;;-1.10;100.00
61018;BME280;48171;51.550;5.434;2023-01-26T00:52:52;102525.09;;;-1.05;100.00
61018;BME280;48171;51.550;5.434;2023-01-26T00:55:18;102518.91;;;-1.07;100.00
61018;BME280;48171;51.550;5.434;2023-01-26T00:57:43;102515.66;;;-1.05;100.00
61018;BME280;48171;51.550;5.434;2023-01-26T01:00:09;102516.53;;;-1.04;100.00
61018;BME280;48171;51.550;5.434;2023-01-26T01:02:37;102515.66;;;-1.05;100.00
61018;BME280;48171;51.550;5.434;2023-01-26T01:05:03;102503.03;;;-1.12;100.00
61018;BME280;48171;51.550;5.434;2023-01-26T01:07:28;102501.56;;;-1.08;100.00
61018;BME280;48171;51.550;5.434;2023-01-26T01:09:53;102501.25;;;-1.13;100.00
61018;BME280;48171;51.550;5.434;2023-01-26T01:12:19;102487.88;;;-1.19;100.00
61018;BME280;48171;51.550;5.434;2023-01-26T01:14:44;102497.97;;;-1.10;100.00
61018;BME280;48171;51.550;5.434;2023-01-26T01:17:09;102501.25;;;-1.13;100.00
61018;BME280;48171;51.550;5.434;2023-01-26T01:19:35;102511.53;;;-1.14;100.00
61018;BME280;48171;51.550;5.434;2023-01-26T01:22:00;102512.63;;;-1.11;100.00
61018;BME280;48171;51.550;5.434;2023-01-26T01:24:25;102504.34;;;-1.18;100.00
61018;BME280;48171;51.550;5.434;2023-01-26T01:26:50;102515.31;;;-1.09;100.00
61018;BME280;48171;51.550;5.434;2023-01-26T01:29:16;102511.81;;;-1.10;100.00
61018;BME280;48171;51.550;5.434;2023-01-26T01:31:41;102500.75;;;-1.07;100.00
61018;BME280;48171;51.550;5.434;2023-01-26T01:34:07;102497.56;;;-1.03;100.00
61018;BME280;48171;51.550;5.434;2023-01-26T01:36:35;102496.78;;;-1.02;100.00
61018;BME280;48171;51.550;5.434;2023-01-26T01:39:00;102499.16;;;-1.05;100.00
61018;BME280;48171;51.550;5.434;2023-01-26T01:41:26;102502.69;;;-1.05;100.00
61018;BME280;48171;51.550;5.434;2023-01-26T01:44:17;102498.25;;;-1.06;100.00
61018;BME280;48171;51.550;5.434;2023-01-26T01:46:46;102504.75;;;-0.99;100.00
61018;BME280;48171;51.550;5.434;2023-01-26T01:49:18;102508.47;;;-0.95;100.00
61018;BME280;48171;51.550;5.434;2023-01-26T01:51:51;102500.78;;;-0.94;100.00
61018;BME280;48171;51.550;5.434;2023-01-26T01:54:22;102501.69;;;-0.93;100.00
61018;BME280;48171;51.550;5.434;2023-01-26T01:56:49;102510.97;;;-0.84;100.00
61018;BME280;48171;51.550;5.434;2023-01-26T01:59:18;102508.78;;;-0.91;100.00
61018;BME280;48171;51.550;5.434;2023-01-26T02:01:45;102513.28;;;-0.88;100.00
61018;BME280;48171;51.550;5.434;2023-01-26T02:04:11;102494.09;;;-0.90;100.00
61018;BME280;48171;51.550;5.434;2023-01-26T02:06:47;102505.88;;;-0.82;100.00
61018;BME280;48171;51.550;5.434;2023-01-26T02:09:15;102499.09;;;-0.80;100.00
61018;BME280;48171;51.550;5.434;2023-01-26T02:12:01;102496.41;;;-0.82;100.00
61018;BME280;48171;51.550;5.434;2023-01-26T02:14:28;102493.69;;;-0.83;100.00
61018;BME280;48171;51.550;5.434;2023-01-26T02:16:53;102479.72;;;-0.85;100.00
61018;BME280;48171;51.550;5.434;2023-01-26T02:19:31;102475.34;;;-0.86;100.00
61018;BME280;48171;51.550;5.434;2023-01-26T02:22:09;102484.13;;;-0.84;100.00
61018;BME280;48171;51.550;5.434;2023-01-26T02:24:38;102479.44;;;-0.90;100.00
61018;BME280;48171;51.550;5.434;2023-01-26T02:27:04;102482.31;;;-0.85;100.00
61018;BME280;48171;51.550;5.434;2023-01-26T02:29:30;102473.34;;;-0.90;100.00
61018;BME280;48171;51.550;5.434;2023-01-26T02:31:56;102467.06;;;-0.94;100.00
61018;BME280;48171;51.550;5.434;2023-01-26T02:34:22;102471.66;;;-0.90;100.00
61018;BME280;48171;51.550;5.434;2023-01-26T02:36:59;102484.31;;;-0.81;100.00
61018;BME280;48171;51.550;5.434;2023-01-26T02:42:01;102465.38;;;-0.80;100.00
61018;BME280;48171;51.550;5.434;2023-01-26T02:44:45;102458.19;;;-0.84;100.00
61018;BME280;48171;51.550;5.434;2023-01-26T02:47:16;102468.06;;;-0.78;100.00
61018;BME280;48171;51.550;5.434;2023-01-26T02:49:42;102477.84;;;-0.74;100.00
61018;BME280;48171;51.550;5.434;2023-01-26T02:52:16;102470.97;;;-0.74;100.00
61018;BME280;48171;51.550;5.434;2023-01-26T02:54:42;102453.88;;;-0.84;100.00
61018;BME280;48171;51.550;5.434;2023-01-26T02:57:26;102463.19;;;-0.74;100.00
61018;BME280;48171;51.550;5.434;2023-01-26T02:59:54;102456.00;;;-0.78;100.00
61018;BME280;48171;51.550;5.434;2023-01-26T03:02:19;102463.19;;;-0.74;100.00
61018;BME280;48171;51.550;5.434;2023-01-26T03:04:45;102454.50;;;-0.74;100.00
61018;BME280;48171;51.550;5.434;2023-01-26T03:07:10;102452.28;;;-0.82;100.00
61018;BME280;48171;51.550;5.434;2023-01-26T03:09:35;102460.69;;;-0.72;100.00
61018;BME280;48171;51.550;5.434;2023-01-26T03:12:01;102460.69;;;-0.72;100.00
61018;BME280;48171;51.550;5.434;2023-01-26T03:14:27;102459.69;;;-0.74;100.00
61018;BME280;48171;51.550;5.434;2023-01-26T03:16:52;102468.75;;;-0.68;100.00
61018;BME280;48171;51.550;5.434;2023-01-26T03:19:17;102452.91;;;-0.72;100.00
61018;BME280;48171;51.550;5.434;2023-01-26T03:22:01;102461.88;;;-0.67;100.00
61018;BME280;48171;51.550;5.434;2023-01-26T03:24:45;102465.66;;;-0.62;100.00
61018;BME280;48171;51.550;5.434;2023-01-26T03:27:37;102461.25;;;-0.63;100.00
61018;BME280;48171;51.550;5.434;2023-01-26T03:30:06;102459.59;;;-0.63;100.00
61018;BME280;48171;51.550;5.434;2023-01-26T03:32:31;102429.22;;;-0.77;100.00
61018;BME280;48171;51.550;5.434;2023-01-26T03:34:56;102454.97;;;-0.67;100.00
61018;BME280;48171;51.550;5.434;2023-01-26T03:37:22;102460.59;;;-0.61;100.00
61018;BME280;48171;51.550;5.434;2023-01-26T03:39:49;102456.47;;;-0.57;100.00
61018;BME280;48171;51.550;5.434;2023-01-26T03:42:34;102455.78;;;-0.54;100.00
61018;BME280;48171;51.550;5.434;2023-01-26T03:45:21;102457.47;;;-0.55;100.00
61018;BME280;48171;51.550;5.434;2023-01-26T03:48:07;102449.00;;;-0.52;100.00
61018;BME280;48171;51.550;5.434;2023-01-26T03:50:51;102451.66;;;-0.51;100.00
61018;BME280;48171;51.550;5.434;2023-01-26T03:53:35;102460.75;;;-0.44;100.00
61018;BME280;48171;51.550;5.434;2023-01-26T03:56:19;102453.97;;;-0.42;100.00
61018;BME280;48171;51.550;5.434;2023-01-26T03:58:58;102444.38;;;-0.43;100.00
61018;BME280;48171;51.550;5.434;2023-01-26T04:01:35;102437.41;;;-0.44;100.00
61018;BME280;48171;51.550;5.434;2023-01-26T04:04:01;102446.47;;;-0.37;100.00
61018;BME280;48171;51.550;5.434;2023-01-26T04:06:46;102437.06;;;-0.35;100.00
61018;BME280;48171;51.550;5.434;2023-01-26T04:09:31;102440.47;;;-0.36;100.00
61018;BME280;48171;51.550;5.434;2023-01-26T04:11:57;102430.69;;;-0.41;100.00
61018;BME280;48171;51.550;5.434;2023-01-26T04:14:22;102438.19;;;-0.32;100.00
61018;BME280;48171;51.550;5.434;2023-01-26T04:17:06;102445.25;;;-0.29;100.00
61018;BME280;48171;51.550;5.434;2023-01-26T04:19:50;102440.88;;;-0.30;100.00
61018;BME280;48171;51.550;5.434;2023-01-26T04:22:36;102449.84;;;-0.25;100.00
61018;BME280;48171;51.550;5.434;2023-01-26T04:25:06;102435.75;;;-0.29;100.00
61018;BME280;48171;51.550;5.434;2023-01-26T04:27:32;102438.34;;;-0.29;100.00
61018;BME280;48171;51.550;5.434;2023-01-26T04:29:59;102446.63;;;-0.21;100.00
61018;BME280;48171;51.550;5.434;2023-01-26T04:32:25;102433.34;;;-0.26;100.00
61018;BME280;48171;51.550;5.434;2023-01-26T04:34:51;102437.06;;;-0.22;100.00
61018;BME280;48171;51.550;5.434;2023-01-26T04:37:16;102444.75;;;-0.24;100.00
61018;BME280;48171;51.550;5.434;2023-01-26T04:39:41;102445.75;;;-0.22;100.00
61018;BME280;48171;51.550;5.434;2023-01-26T04:42:07;102436.84;;;-0.25;100.00
61018;BME280;48171;51.550;5.434;2023-01-26T04:44:32;102445.84;;;-0.20;100.00
61018;BME280;48171;51.550;5.434;2023-01-26T04:46:57;102438.72;;;-0.23;100.00
61018;BME280;48171;51.550;5.434;2023-01-26T04:49:23;102444.13;;;-0.19;100.00
61018;BME280;48171;51.550;5.434;2023-01-26T04:51:50;102440.81;;;-0.17;100.00
61018;BME280;48171;51.550;5.434;2023-01-26T04:54:16;102440.03;;;-0.16;100.00
61018;BME280;48171;51.550;5.434;2023-01-26T04:56:41;102439.94;;;-0.17;100.00
61018;BME280;48171;51.550;5.434;2023-01-26T04:59:08;102442.63;;;-0.16;100.00
61018;BME280;48171;51.550;5.434;2023-01-26T05:01:34;102432.03;;;-0.19;100.00
61018;BME280;48171;51.550;5.434;2023-01-26T05:04:01;102436.50;;;-0.16;100.00
61018;BME280;48171;51.550;5.434;2023-01-26T05:06:26;102435.91;;;-0.12;100.00
61018;BME280;48171;51.550;5.434;2023-01-26T05:08:52;102437.88;;;-0.08;100.00
61018;BME280;48171;51.550;5.434;2023-01-26T05:11:17;102441.09;;;-0.12;100.00
61018;BME280;48171;51.550;5.434;2023-01-26T05:13:42;102440.41;;;-0.10;100.00
61018;BME280;48171;51.550;5.434;2023-01-26T05:16:10;102436.63;;;-0.15;100.00
61018;BME280;48171;51.550;5.434;2023-01-26T05:18:38;102437.19;;;-0.06;100.00
61018;BME280;48171;51.550;5.434;2023-01-26T05:21:03;102442.47;;;-0.04;100.00
61018;BME280;48171;51.550;5.434;2023-01-26T05:23:28;102427.69;;;-0.05;100.00
61018;BME280;48171;51.550;5.434;2023-01-26T05:25:56;102428.69;;;-0.03;100.00
61018;BME280;48171;51.550;5.434;2023-01-26T05:28:21;102436.47;;;-0.03;100.00
61018;BME280;48171;51.550;5.434;2023-01-26T05:30:47;102430.41;;;-0.04;100.00
61018;BME280;48171;51.550;5.434;2023-01-26T05:33:12;102435.88;;;0.01;100.00
61018;BME280;48171;51.550;5.434;2023-01-26T05:35:37;102450.06;;;0.06;100.00
61018;BME280;48171;51.550;5.434;2023-01-26T05:38:03;102448.16;;;0.04;100.00
61018;BME280;48171;51.550;5.434;2023-01-26T05:40:28;102445.84;;;0.08;100.00
61018;BME280;48171;51.550;5.434;2023-01-26T05:42:55;102449.34;;;0.09;100.00
61018;BME280;48171;51.550;5.434;2023-01-26T05:45:21;102437.25;;;0.09;100.00
61018;BME280;48171;51.550;5.434;2023-01-26T05:47:47;102430.94;;;0.06;100.00
61018;BME280;48171;51.550;5.434;2023-01-26T05:50:16;102450.50;;;0.14;100.00
61018;BME280;48171;51.550;5.434;2023-01-26T05:52:42;102442.63;;;0.12;100.00
61018;BME280;48171;51.550;5.434;2023-01-26T05:55:12;102446.03;;;0.11;100.00
61018;BME280;48171;51.550;5.434;2023-01-26T05:57:38;102444.16;;;0.09;100.00
61018;BME280;48171;51.550;5.434;2023-01-26T06:00:04;102443.31;;;0.10;100.00
61018;BME280;48171;51.550;5.434;2023-01-26T06:02:30;102453.09;;;0.14;100.00
61018;BME280;48171;51.550;5.434;2023-01-26T06:04:55;102442.44;;;0.09;100.00
61018;BME280;48171;51.550;5.434;2023-01-26T06:07:20;102454.72;;;0.12;100.00
61018;BME280;48171;51.550;5.434;2023-01-26T06:09:46;102454.66;;;0.10;100.00
61018;BME280;48171;51.550;5.434;2023-01-26T06:12:14;102458.84;;;0.08;100.00
61018;BME280;48171;51.550;5.434;2023-01-26T06:14:40;102450.13;;;0.08;100.00
61018;BME280;48171;51.550;5.434;2023-01-26T06:17:05;102452.72;;;0.08;100.00
61018;BME280;48171;51.550;5.434;2023-01-26T06:19:30;102460.13;;;0.15;100.00
61018;BME280;48171;51.550;5.434;2023-01-26T06:21:58;102462.72;;;0.15;100.00
61018;BME280;48171;51.550;5.434;2023-01-26T06:24:23;102455.81;;;0.15;100.00
61018;BME280;48171;51.550;5.434;2023-01-26T06:26:49;102455.81;;;0.15;100.00
61018;BME280;48171;51.550;5.434;2023-01-26T06:29:15;102450.50;;;0.14;100.00
61018;BME280;48171;51.550;5.434;2023-01-26T06:31:40;102445.25;;;0.12;100.00
61018;BME280;48171;51.550;5.434;2023-01-26T06:34:06;102450.44;;;0.12;100.00
61018;BME280;48171;51.550;5.434;2023-01-26T06:36:33;102461.09;;;0.17;100.00
61018;BME280;48171;51.550;5.434;2023-01-26T06:38:58;102454.91;;;0.15;100.00
61018;BME280;48171;51.550;5.434;2023-01-26T06:41:23;102455.09;;;0.18;100.00
61018;BME280;48171;51.550;5.434;2023-01-26T06:43:49;102442.81;;;0.15;100.00
61018;BME280;48171;51.550;5.434;2023-01-26T06:46:15;102461.28;;;0.20;100.00
61018;BME280;48171;51.550;5.434;2023-01-26T06:48:41;102460.28;;;0.18;100.00
61018;BME280;48171;51.550;5.434;2023-01-26T06:53:53;102469.38;;;0.25;100.00
61018;BME280;48171;51.550;5.434;2023-01-26T06:56:20;102469.16;;;0.22;100.00
61018;BME280;48171;51.550;5.434;2023-01-26T06:58:45;102470.25;;;0.25;100.00
61018;BME280;48171;51.550;5.434;2023-01-26T07:01:32;102469.38;;;0.25;100.00
61018;BME280;48171;51.550;5.434;2023-01-26T07:03:58;102473.84;;;0.27;100.00
61018;BME280;48171;51.550;5.434;2023-01-26T07:06:24;102470.38;;;0.27;100.00
61018;BME280;48171;51.550;5.434;2023-01-26T07:08:49;102465.25;;;0.28;100.00
61018;BME280;48171;51.550;5.434;2023-01-26T07:11:14;102472.25;;;0.29;100.00
61018;BME280;48171;51.550;5.434;2023-01-26T07:13:41;102473.03;;;0.28;100.00
61018;BME280;48171;51.550;5.434;2023-01-26T07:16:11;102485.34;;;0.31;100.00
61018;BME280;48171;51.550;5.434;2023-01-26T07:18:37;102483.38;;;0.27;100.00
61018;BME280;48171;51.550;5.434;2023-01-26T07:21:04;102487.25;;;0.20;100.00
61018;BME280;48171;51.550;5.434;2023-01-26T07:23:30;102490.84;;;0.22;100.00
61018;BME280;48171;51.550;5.434;2023-01-26T07:25:56;102488.25;;;0.22;100.00
61018;BME280;48171;51.550;5.434;2023-01-26T07:28:21;102478.41;;;0.16;100.00
61018;BME280;48171;51.550;5.434;2023-01-26T07:30:47;102482.28;;;0.23;100.00
61018;BME280;48171;51.550;5.434;2023-01-26T07:33:13;102482.28;;;0.23;100.00
61018;BME280;48171;51.550;5.434;2023-01-26T07:35:39;102492.84;;;0.26;100.00
61018;BME280;48171;51.550;5.434;2023-01-26T07:38:04;102460.84;;;0.12;100.00
61018;BME280;48171;51.550;5.434;2023-01-26T07:40:30;102489.44;;;0.27;100.00
61018;BME280;48171;51.550;5.434;2023-01-26T07:42:56;102486.03;;;0.28;100.00
61018;BME280;48171;51.550;5.434;2023-01-26T07:45:21;102485.34;;;0.31;100.00
61018;BME280;48171;51.550;5.434;2023-01-26T07:47:46;102492.44;;;0.33;100.00
61018;BME280;48171;51.550;5.434;2023-01-26T07:50:12;102492.44;;;0.33;100.00
61018;BME280;48171;51.550;5.434;2023-01-26T07:52:38;102496.63;;;0.31;100.00
61018;BME280;48171;51.550;5.434;2023-01-26T07:55:04;102488.34;;;0.24;100.00
61018;BME280;48171;51.550;5.434;2023-01-26T07:57:29;102496.84;;;0.34;100.00
61018;BME280;48171;51.550;5.434;2023-01-26T07:59:54;102501.84;;;0.31;100.00
61018;BME280;48171;51.550;5.434;2023-01-26T08:02:20;102504.16;;;0.27;100.00
61018;BME280;48171;51.550;5.434;2023-01-26T08:04:45;102493.56;;;0.24;100.00
61018;BME280;48171;51.550;5.434;2023-01-26T08:07:10;102499.03;;;0.28;100.00
61018;BME280;48171;51.550;5.434;2023-01-26T08:09:36;102507.13;;;0.33;100.00
61018;BME280;48171;51.550;5.434;2023-01-26T08:12:01;102519.16;;;0.31;100.00
61018;BME280;48171;51.550;5.434;2023-01-26T08:14:26;102512.13;;;0.30;100.00
61018;BME280;48171;51.550;5.434;2023-01-26T08:16:52;102516.44;;;0.29;100.00
61018;BME280;48171;51.550;5.434;2023-01-26T08:19:17;102520.03;;;0.31;100.00
61018;BME280;48171;51.550;5.434;2023-01-26T08:21:42;102517.44;;;0.31;100.00
61018;BME280;48171;51.550;5.434;2023-01-26T08:24:10;102525.44;;;0.34;100.00
61018;BME280;48171;51.550;5.434;2023-01-26T08:26:36;102520.31;;;0.36;100.00
61018;BME280;48171;51.550;5.434;2023-01-26T08:29:01;102516.81;;;0.35;100.00
61018;BME280;48171;51.550;5.434;2023-01-26T08:31:26;102505.69;;;0.38;100.00
61018;BME280;48171;51.550;5.434;2023-01-26T08:33:52;102521.50;;;0.41;100.00
61018;BME280;48171;51.550;5.434;2023-01-26T08:36:19;102527.78;;;0.45;100.00
61018;BME280;48171;51.550;5.434;2023-01-26T08:38:45;102512.81;;;0.41;100.00
61018;BME280;48171;51.550;5.434;2023-01-26T08:41:11;102528.97;;;0.50;100.00
61018;BME280;48171;51.550;5.434;2023-01-26T08:43:37;102531.56;;;0.50;100.00
61018;BME280;48171;51.550;5.434;2023-01-26T08:46:03;102537.66;;;0.50;100.00
61018;BME280;48171;51.550;5.434;2023-01-26T08:48:28;102531.56;;;0.50;100.00
61018;BME280;48171;51.550;5.434;2023-01-26T08:50:57;102526.56;;;0.53;100.00
61018;BME280;48171;51.550;5.434;2023-01-26T08:53:23;102530.22;;;0.56;100.00
61018;BME280;48171;51.550;5.434;2023-01-26T08:55:49;102534.63;;;0.57;100.00
61018;BME280;48171;51.550;5.434;2023-01-26T08:58:14;102522.25;;;0.53;100.00
61018;BME280;48171;51.550;5.434;2023-01-26T09:00:39;102528.72;;;0.60;100.00
61018;BME280;48171;51.550;5.434;2023-01-26T09:03:05;102520.81;;;0.58;100.00
61018;BME280;48171;51.550;5.434;2023-01-26T09:05:33;102524.88;;;0.68;100.00
61018;BME280;48171;51.550;5.434;2023-01-26T09:07:59;102524.97;;;0.70;100.00
61018;BME280;48171;51.550;5.434;2023-01-26T09:10:24;102526.16;;;0.75;100.00
61018;BME280;48171;51.550;5.434;2023-01-26T09:12:50;102522.72;;;0.76;100.00
61018;BME280;48171;51.550;5.434;2023-01-26T09:15:15;102526.31;;;0.78;100.00
61018;BME280;48171;51.550;5.434;2023-01-26T09:17:41;102528.13;;;0.79;100.00
61018;BME280;48171;51.550;5.434;2023-01-26T09:20:08;102516.75;;;0.77;100.00
61018;BME280;48171;51.550;5.434;2023-01-26T09:22:36;102537.81;;;0.82;100.00
61018;BME280;48171;51.550;5.434;2023-01-26T09:25:02;102529.28;;;0.84;100.00
61018;BME280;48171;51.550;5.434;2023-01-26T09:27:27;102536.38;;;0.87;100.00
61018;BME280;48171;51.550;5.434;2023-01-26T09:29:53;102525.91;;;0.85;100.00
61018;BME280;48171;51.550;5.434;2023-01-26T09:32:21;102535.47;;;0.86;100.00
61018;BME280;48171;51.550;5.434;2023-01-26T09:34:46;102529.19;;;0.83;100.00
61018;BME280;48171;51.550;5.434;2023-01-26T09:37:11;102537.91;;;0.83;100.00
61018;BME280;48171;51.550;5.434;2023-01-26T09:39:37;102518.16;;;0.72;100.00
61018;BME280;48171;51.550;5.434;2023-01-26T09:48:11;102547.72;;;0.87;100.00
61018;BME280;48171;51.550;5.434;2023-01-26T09:51:09;102544.13;;;0.85;100.00
61018;BME280;48171;51.550;5.434;2023-01-26T09:53:52;102536.56;;;0.90;100.00
61018;BME280;48171;51.550;5.434;2023-01-26T09:56:19;102541.16;;;0.94;100.00
61018;BME280;48171;51.550;5.434;2023-01-26T09:58:52;102544.47;;;0.91;100.00
61018;BME280;48171;51.550;5.434;2023-01-26T10:01:43;102541.06;;;0.92;100.00
61018;BME280;48171;51.550;5.434;2023-01-26T10:04:21;102542.88;;;0.93;100.00
61018;BME280;48171;51.550;5.434;2023-01-26T10:06:52;102541.94;;;0.93;100.00
61018;BME280;48171;51.550;5.434;2023-01-26T10:09:23;102539.75;;;0.99;100.00
61018;BME280;48171;51.550;5.434;2023-01-26T10:11:53;102540.88;;;1.04;100.00
61018;BME280;48171;51.550;5.434;2023-01-26T10:14:35;102541.00;;;1.06;100.00
61018;BME280;48171;51.550;5.434;2023-01-26T10:17:06;102531.38;;;1.05;100.00
61018;BME280;48171;51.550;5.434;2023-01-26T10:22:13;102545.03;;;1.15;100.00
61018;BME280;48171;51.550;5.434;2023-01-26T10:24:39;102525.84;;;1.13;100.00
61018;BME280;48171;51.550;5.434;2023-01-26T10:27:10;102535.16;;;1.25;100.00
61018;BME280;48171;51.550;5.434;2023-01-26T10:29:36;102540.44;;;1.26;100.00
61018;BME280;48171;51.550;5.434;2023-01-26T10:32:02;102541.06;;;1.22;100.00
61018;BME280;48171;51.550;5.434;2023-01-26T10:34:27;102525.00;;;1.14;100.00
61018;BME280;48171;51.550;5.434;2023-01-26T10:37:11;102542.06;;;1.24;100.00
61018;BME280;48171;51.550;5.434;2023-01-26T10:40:00;102542.16;;;1.26;100.00
61018;BME280;48171;51.550;5.434;2023-01-26T10:42:28;102545.66;;;1.26;100.00
61018;BME280;48171;51.550;5.434;2023-01-26T10:44:54;102546.75;;;1.30;100.00
61018;BME280;48171;51.550;5.434;2023-01-26T10:47:19;102531.13;;;1.30;100.00
61018;BME280;48171;51.550;5.434;2023-01-26T10:49:46;102532.25;;;1.35;100.00
61018;BME280;48171;51.550;5.434;2023-01-26T10:52:20;102543.22;;;1.44;100.00
61018;BME280;48171;51.550;5.434;2023-01-26T10:54:47;102538.81;;;1.43;100.00
61018;BME280;48171;51.550;5.434;2023-01-26T10:57:29;102547.91;;;1.50;100.00
61018;BME280;48171;51.550;5.434;2023-01-26T10:59:58;102543.72;;;1.53;100.00
61018;BME280;48171;51.550;5.434;2023-01-26T11:02:26;102537.25;;;1.62;100.00
61018;BME280;48171;51.550;5.434;2023-01-26T11:07:38;102531.78;;;1.72;100.00
61018;BME280;48171;51.550;5.434;2023-01-26T11:10:33;102532.19;;;1.79;100.00
61018;BME280;48171;51.550;5.434;2023-01-26T11:13:11;102545.75;;;1.89;100.00
61018;BME280;48171;51.550;5.434;2023-01-26T11:15:40;102532.22;;;1.96;100.00
61018;BME280;48171;51.550;5.434;2023-01-26T11:24:32;102536.34;;;2.24;100.00
61018;BME280;48171;51.550;5.434;2023-01-26T11:27:12;102543.81;;;2.32;100.00
61018;BME280;48171;51.550;5.434;2023-01-26T11:29:46;102537.34;;;2.42;100.00
61018;BME280;48171;51.550;5.434;2023-01-26T11:32:21;102540.53;;;2.53;100.00
61018;BME280;48171;51.550;5.434;2023-01-26T11:35:02;102544.47;;;2.61;100.00
61018;BME280;48171;51.550;5.434;2023-01-26T11:41:02;102541.19;;;2.82;100.00
61018;BME280;48171;51.550;5.434;2023-01-26T11:52:34;102521.09;;;2.97;100.00
61018;BME280;48171;51.550;5.434;2023-01-26T11:55:29;102508.03;;;2.97;100.00
61018;BME280;48171;51.550;5.434;2023-01-26T12:00:51;102511.63;;;3.17;100.00
61018;BME280;48171;51.550;5.434;2023-01-26T12:03:29;102506.97;;;3.28;100.00
61018;BME280;48171;51.550;5.434;2023-01-26T12:05:59;102513.47;;;3.36;100.00
61018;BME280;48171;51.550;5.434;2023-01-26T12:08:28;102500.81;;;3.45;100.00
61018;BME280;48171;51.550;5.434;2023-01-26T12:11:09;102504.13;;;3.59;100.00
61018;BME280;48171;51.550;5.434;2023-01-26T12:13:58;102499.47;;;3.71;100.00
61018;BME280;48171;51.550;5.434;2023-01-26T12:21:36;102485.09;;;3.99;100.00
61018;BME280;48171;51.550;5.434;2023-01-26T12:24:04;102493.31;;;4.07;100.00
61018;BME280;48171;51.550;5.434;2023-01-26T12:26:41;102481.31;;;4.12;100.00
61018;BME280;48171;51.550;5.434;2023-01-26T12:29:19;102488.63;;;4.19;100.00
61018;BME280;48171;51.550;5.434;2023-01-26T12:31:52;102483.59;;;4.24;100.00
61018;BME280;48171;51.550;5.434;2023-01-26T12:34:27;102473.38;;;4.28;100.00
61018;BME280;48171;51.550;5.434;2023-01-26T12:39:44;102462.78;;;4.46;100.00
61018;BME280;48171;51.550;5.434;2023-01-26T12:44:58;102463.41;;;4.60;100.00
61018;BME280;48171;51.550;5.434;2023-01-26T12:47:33;102452.94;;;4.60;100.00
61018;BME280;48171;51.550;5.434;2023-01-26T12:53:04;102448.81;;;4.65;100.00
61018;BME280;48171;51.550;5.434;2023-01-26T12:55:54;102457.81;;;4.72;100.00
61018;BME280;48171;51.550;5.434;2023-01-26T12:58:25;102443.06;;;4.74;100.00
61018;BME280;48171;51.550;5.434;2023-01-26T13:01:08;102448.88;;;4.88;100.00
61018;BME280;48171;51.550;5.434;2023-01-26T13:03:37;102432.31;;;4.89;100.00
61018;BME280;48171;51.550;5.434;2023-01-26T13:11:05;102442.63;;;5.05;100.00
61018;BME280;48171;51.550;5.434;2023-01-26T13:13:54;102448.88;;;5.09;100.00
61018;BME280;48171;51.550;5.434;2023-01-26T13:16:29;102450.69;;;5.10;100.00
61018;BME280;48171;51.550;5.434;2023-01-26T13:18:56;102446.31;;;5.10;100.00
61018;BME280;48171;51.550;5.434;2023-01-26T13:26:53;102436.59;;;5.29;100.00
61018;BME280;48171;51.550;5.434;2023-01-26T13:31:44;102429.03;;;5.36;100.00
61018;BME280;48171;51.550;5.434;2023-01-26T13:34:09;102416.97;;;5.40;100.00
61018;BME280;48171;51.550;5.434;2023-01-26T13:36:39;102429.41;;;5.46;100.00
61018;BME280;48171;51.550;5.434;2023-01-26T13:39:36;102433.94;;;5.50;100.00
61018;BME280;48171;51.550;5.434;2023-01-26T13:42:15;102435.66;;;5.49;100.00
61018;BME280;48171;51.550;5.434;2023-01-26T13:44:48;102429.34;;;5.44;100.00
61018;BME280;48171;51.550;5.434;2023-01-26T13:47:21;102434.66;;;5.46;100.00
61018;BME280;48171;51.550;5.434;2023-01-26T13:49:48;102422.19;;;5.40;100.00
61018;BME280;48171;51.550;5.434;2023-01-26T13:54:41;102430.25;;;5.45;100.00
61018;BME280;48171;51.550;5.434;2023-01-26T13:57:10;102433.88;;;5.48;100.00
61018;BME280;48171;51.550;5.434;2023-01-26T13:59:50;102433.97;;;5.51;100.00
61018;BME280;48171;51.550;5.434;2023-01-26T14:02:34;102428.97;;;5.57;100.00
61018;BME280;48171;51.550;5.434;2023-01-26T14:05:01;102432.59;;;5.59;100.00